createdAt,value
2019-04-23T00:02:04.891Z,36.40
2019-04-23T00:04:43.194Z,35.90
2019-04-23T00:07:26.545Z,36.00
2019-04-23T00:09:57.613Z,36.10
2019-04-23T00:12:38.931Z,36.30
2019-04-23T00:15:07.557Z,36.30
2019-04-23T00:17:42.453Z,36.40
2019-04-23T00:20:14.492Z,36.40
2019-04-23T00:23:06.496Z,36.40
2019-04-23T00:25:49.767Z,36.50
2019-04-23T00:28:20.462Z,36.50
2019-04-23T00:36:02.723Z,37.00
2019-04-23T00:38:38.440Z,37.20
2019-04-23T00:41:12.127Z,37.20
2019-04-23T00:43:48.652Z,38.00
2019-04-23T00:46:22.988Z,37.40
2019-04-23T00:51:36.659Z,37.60
2019-04-23T00:54:14.314Z,37.80
2019-04-23T00:56:46.210Z,37.80
2019-04-23T00:59:21.473Z,38.20
2019-04-23T01:01:58.019Z,37.90
2019-04-23T01:04:34.253Z,38.20
2019-04-23T01:07:09.611Z,38.20
2019-04-23T01:09:45.633Z,38.40
2019-04-23T01:12:27.536Z,38.40
2019-04-23T01:14:58.809Z,38.50
2019-04-23T01:17:45.253Z,38.60
2019-04-23T01:20:08.182Z,38.70
2019-04-23T01:22:25.556Z,38.90
2019-04-23T01:25:10.340Z,39.00
2019-04-23T01:28:02.406Z,39.40
2019-04-23T01:30:41.094Z,39.20
2019-04-23T01:33:21.659Z,39.40
2019-04-23T01:36:06.160Z,39.40
2019-04-23T01:38:29.297Z,39.60
2019-04-23T01:40:57.657Z,39.70
2019-04-23T01:43:36.534Z,39.80
2019-04-23T01:46:08.061Z,39.90
2019-04-23T01:48:46.884Z,40.00
2019-04-23T01:51:22.520Z,40.10
2019-04-23T01:56:30.853Z,40.30
2019-04-23T01:59:05.113Z,40.40
2019-04-23T02:01:47.996Z,40.50
2019-04-23T02:04:24.751Z,40.50
2019-04-23T02:06:51.834Z,40.70
2019-04-23T02:09:25.037Z,40.90
2019-04-23T02:12:04.359Z,41.00
2019-04-23T02:14:36.461Z,41.00
2019-04-23T02:17:28.796Z,41.00
2019-04-23T02:19:53.866Z,41.10
2019-04-23T02:22:52.668Z,41.20
2019-04-23T02:25:33.979Z,41.30
2019-04-23T02:28:03.059Z,41.40
2019-04-23T02:30:53.181Z,41.40
2019-04-23T02:35:55.560Z,41.50
2019-04-23T02:38:33.564Z,41.50
2019-04-23T02:41:03.647Z,41.60
2019-04-23T02:43:20.172Z,41.70
2019-04-23T02:46:05.522Z,41.80
2019-04-23T02:48:54.680Z,41.70
2019-04-23T02:51:21.546Z,41.90
2019-04-23T02:59:14.475Z,42.20
2019-04-23T03:01:46.532Z,42.40
2019-04-23T03:04:17.373Z,42.40
2019-04-23T03:06:56.695Z,42.50
2019-04-23T03:12:05.862Z,42.70
2019-04-23T03:20:03.809Z,43.00
2019-04-23T03:22:46.061Z,43.20
2019-04-23T03:25:15.017Z,43.40
2019-04-23T03:30:49.601Z,43.50
2019-04-23T03:36:14.199Z,43.70
2019-04-23T03:38:21.198Z,43.90
2019-04-23T03:40:58.976Z,44.10
2019-04-23T03:51:09.036Z,44.40
2019-04-23T03:53:52.226Z,44.60
2019-04-23T04:01:38.954Z,44.80
2019-04-23T04:11:47.620Z,45.00
2019-04-23T04:19:41.792Z,45.30
2019-04-23T04:30:01.620Z,45.80
2019-04-23T04:32:36.480Z,45.80
2019-04-23T04:45:57.398Z,46.30
2019-04-23T04:48:01.416Z,46.40
2019-04-23T04:53:40.647Z,46.50
2019-04-23T04:55:57.237Z,46.60
2019-04-23T04:58:32.269Z,46.50
2019-04-23T05:03:29.684Z,46.50
2019-04-23T05:08:54.509Z,46.50
2019-04-23T05:11:28.331Z,46.30
2019-04-23T05:14:04.254Z,46.30
2019-04-23T05:19:24.402Z,46.70
2019-04-23T05:21:55.668Z,46.10
2019-04-23T05:26:58.341Z,46.00
2019-04-23T05:29:30.323Z,46.00
2019-04-23T05:32:10.122Z,46.00
2019-04-23T05:34:41.479Z,45.90
2019-04-23T05:37:50.425Z,45.90
2019-04-23T05:42:58.859Z,45.70
2019-04-23T05:45:35.164Z,45.90
2019-04-23T05:48:21.554Z,45.80
2019-04-23T05:51:01.871Z,45.70
2019-04-23T05:58:39.986Z,45.70
2019-04-23T06:04:12.431Z,45.50
2019-04-23T06:06:45.447Z,45.40
2019-04-23T06:09:14.679Z,45.40
2019-04-23T06:11:58.688Z,45.30
2019-04-23T06:14:40.296Z,45.20
2019-04-23T06:16:57.663Z,45.10
2019-04-23T06:19:25.731Z,45.50
2019-04-23T06:22:18.719Z,44.90
2019-04-23T06:24:41.449Z,44.80
2019-04-23T06:27:22.044Z,44.70
2019-04-23T06:35:19.213Z,44.40
2019-04-23T06:40:13.935Z,44.40
2019-04-23T06:42:56.225Z,44.30
2019-04-23T06:45:29.281Z,44.30
2019-04-23T06:48:08.992Z,44.20
2019-04-23T06:50:46.300Z,44.20
2019-04-23T06:53:09.166Z,44.20
2019-04-23T06:55:49.220Z,44.20
2019-04-23T06:58:28.991Z,44.10
2019-04-23T07:01:03.492Z,44.10
2019-04-23T07:03:38.363Z,44.10
2019-04-23T07:09:08.128Z,44.20
2019-04-23T07:16:27.655Z,44.10
2019-04-23T07:19:09.495Z,44.10
2019-04-23T07:21:37.311Z,44.10
2019-04-23T07:26:41.875Z,43.80
2019-04-23T07:29:25.078Z,43.60
2019-04-23T07:31:59.006Z,43.50
2019-04-23T07:34:30.278Z,43.40
2019-04-23T07:37:27.979Z,43.40
2019-04-23T07:40:19.710Z,43.30
2019-04-23T07:42:58.306Z,43.30
2019-04-23T07:45:45.052Z,43.30
2019-04-23T07:48:15.204Z,43.20
2019-04-23T07:58:35.158Z,43.00
2019-04-23T08:01:14.098Z,43.00
2019-04-23T08:03:48.174Z,42.90
2019-04-23T08:06:19.482Z,43.00
2019-04-23T08:08:56.608Z,42.60
2019-04-23T08:11:42.713Z,42.60
2019-04-23T08:14:22.331Z,42.80
2019-04-23T08:16:40.153Z,43.00
2019-04-23T08:19:25.286Z,42.30
2019-04-23T08:22:07.046Z,42.30
2019-04-23T08:24:45.268Z,42.00
2019-04-23T08:27:10.021Z,41.90
2019-04-23T08:29:55.742Z,41.90
2019-04-23T08:32:29.262Z,41.80
2019-04-23T08:35:06.391Z,41.70
2019-04-23T08:38:00.636Z,41.60
2019-04-23T08:40:24.541Z,41.40
2019-04-23T08:43:03.515Z,41.40
2019-04-23T08:56:15.492Z,40.90
2019-04-23T08:58:50.968Z,40.70
2019-04-23T09:01:09.551Z,40.80
2019-04-23T09:03:40.334Z,40.60
2019-04-23T09:06:21.603Z,40.60
2019-04-23T09:08:56.576Z,40.60
2019-04-23T09:11:42.650Z,40.50
2019-04-23T09:14:00.907Z,40.40
2019-04-23T09:16:42.728Z,40.30
2019-04-23T09:19:26.046Z,40.10
2019-04-23T09:22:01.275Z,40.00
2019-04-23T09:24:29.123Z,40.00
2019-04-23T09:27:05.683Z,40.00
2019-04-23T09:29:45.814Z,39.90
2019-04-23T09:35:27.902Z,39.90
2019-04-23T09:38:07.165Z,39.90
2019-04-23T09:41:18.194Z,39.50
2019-04-23T09:43:33.172Z,39.40
2019-04-23T09:46:17.486Z,39.40
2019-04-23T09:48:50.980Z,39.40
2019-04-23T09:51:30.011Z,39.30
2019-04-23T09:54:07.895Z,39.20
2019-04-23T09:56:36.146Z,39.20
2019-04-23T09:59:17.154Z,39.20
2019-04-23T10:01:35.664Z,39.10
2019-04-23T10:04:04.121Z,39.00
2019-04-23T10:06:32.557Z,39.10
2019-04-23T10:09:06.643Z,39.10
2019-04-23T10:11:38.621Z,39.00
2019-04-23T10:14:12.423Z,39.00
2019-04-23T10:16:47.322Z,39.00
2019-04-23T10:19:22.276Z,38.90
2019-04-23T10:21:57.497Z,38.90
2019-04-23T10:24:31.085Z,39.00
2019-04-23T10:27:06.065Z,38.90
2019-04-23T10:29:41.618Z,38.80
2019-04-23T10:32:15.767Z,38.80
2019-04-23T10:35:03.604Z,38.80
2019-04-23T10:37:34.175Z,38.70
2019-04-23T10:40:04.852Z,38.70
2019-04-23T10:42:38.482Z,38.70
2019-04-23T10:45:42.597Z,38.90
2019-04-23T10:48:49.960Z,38.80
2019-04-23T10:51:38.588Z,38.70
2019-04-23T10:54:15.844Z,38.60
2019-04-23T10:59:35.049Z,38.50
2019-04-23T11:05:00.406Z,38.30
2019-04-23T11:13:10.702Z,37.80
2019-04-23T11:17:59.175Z,37.60
2019-04-23T11:20:41.517Z,37.50
2019-04-23T11:23:15.161Z,37.30
2019-04-23T11:25:48.575Z,37.20
2019-04-23T11:31:17.192Z,36.90
2019-04-23T11:36:46.814Z,36.60
2019-04-23T11:38:02.540Z,36.80
2019-04-23T11:41:38.396Z,36.30
2019-04-23T11:44:02.331Z,36.10
2019-04-23T11:49:26.787Z,36.00
2019-04-23T11:51:57.960Z,36.10
2019-04-23T11:54:28.807Z,35.90
2019-04-23T11:57:22.453Z,35.90
2019-04-23T11:59:35.926Z,35.90
2019-04-23T12:02:07.176Z,35.80
2019-04-23T12:05:17.287Z,35.80
2019-04-23T12:07:39.494Z,35.70
2019-04-23T12:10:39.348Z,35.60
2019-04-23T12:18:18.087Z,35.80
2019-04-23T12:20:51.101Z,35.40
2019-04-23T12:26:11.592Z,35.40
2019-04-23T12:28:44.038Z,35.40
2019-04-23T12:31:15.941Z,35.50
2019-04-23T12:33:49.082Z,35.50
2019-04-23T12:36:36.938Z,35.40
2019-04-23T12:39:11.233Z,35.40
2019-04-23T12:41:47.799Z,35.40
2019-04-23T12:44:14.841Z,35.40
2019-04-23T12:46:55.441Z,35.50
2019-04-23T12:50:03.032Z,35.60
2019-04-23T12:52:12.147Z,35.60
2019-04-23T12:54:59.089Z,35.70
2019-04-23T12:57:24.248Z,35.60
2019-04-23T12:59:50.226Z,35.70
2019-04-23T13:05:00.293Z,35.70
2019-04-23T13:12:50.337Z,35.70
2019-04-23T13:15:27.127Z,35.70
2019-04-23T13:18:06.660Z,35.50
2019-04-23T13:20:32.304Z,35.50
2019-04-23T13:25:59.764Z,35.60
2019-04-23T13:28:40.169Z,35.50
2019-04-23T13:36:32.822Z,35.40
2019-04-23T13:38:55.894Z,35.50
2019-04-23T13:41:33.062Z,35.40
2019-04-23T13:44:14.283Z,35.40
2019-04-23T13:46:55.850Z,35.40
2019-04-23T13:49:28.123Z,35.50
2019-04-23T13:51:58.791Z,35.50
2019-04-23T13:54:58.471Z,35.40
2019-04-23T13:59:45.208Z,35.60
2019-04-23T14:05:02.607Z,35.60
2019-04-23T14:07:38.816Z,35.70
2019-04-23T14:10:20.051Z,35.60
2019-04-23T14:13:01.934Z,35.40
2019-04-23T14:15:36.322Z,35.30
2019-04-23T14:18:20.896Z,34.90
2019-04-23T14:20:31.593Z,34.70
2019-04-23T14:23:12.683Z,34.60
2019-04-23T14:26:00.029Z,34.30
2019-04-23T14:28:28.825Z,33.90
2019-04-23T14:31:00.696Z,33.60
2019-04-23T14:33:51.256Z,33.50
2019-04-23T14:36:07.700Z,33.90
2019-04-23T14:38:43.851Z,34.10
2019-04-23T14:42:07.152Z,34.40
2019-04-23T14:49:07.084Z,35.10
2019-04-23T14:51:42.655Z,35.20
2019-04-23T14:54:22.904Z,35.30
2019-04-23T14:57:03.050Z,35.60
2019-04-23T14:59:21.442Z,35.70
2019-04-23T15:02:08.147Z,35.80
2019-04-23T15:04:39.374Z,36.00
2019-04-23T15:07:31.209Z,36.10
2019-04-23T15:09:57.748Z,36.10
2019-04-23T15:15:06.424Z,36.50
2019-04-23T15:17:36.227Z,36.70
2019-04-23T15:20:19.980Z,37.00
2019-04-23T15:23:02.742Z,37.20
2019-04-23T15:28:07.306Z,37.60
2019-04-23T15:30:34.036Z,37.60
2019-04-23T15:33:16.799Z,37.80
2019-04-23T15:36:21.767Z,38.10
2019-04-23T15:38:33.906Z,38.20
2019-04-23T15:41:01.834Z,38.40
2019-04-23T15:43:30.439Z,38.50
2019-04-23T15:46:12.939Z,38.70
2019-04-23T15:48:42.855Z,38.80
2019-04-23T15:53:56.821Z,38.90
2019-04-23T15:56:35.561Z,39.10
2019-04-23T15:59:17.040Z,38.80
2019-04-23T16:01:37.650Z,38.20
2019-04-23T16:03:47.199Z,37.90
2019-04-23T16:06:23.562Z,37.50
2019-04-23T16:09:36.004Z,37.10
2019-04-23T16:11:51.990Z,36.70
2019-04-23T16:14:56.474Z,36.40
2019-04-23T16:19:59.698Z,35.90
2019-04-23T16:22:25.010Z,35.80
2019-04-23T16:25:08.031Z,35.80
2019-04-23T16:27:36.595Z,35.80
2019-04-23T16:30:28.745Z,35.90
2019-04-23T16:33:02.448Z,36.00
2019-04-23T16:38:19.719Z,36.10
2019-04-23T16:40:41.500Z,36.30
2019-04-23T16:43:13.203Z,36.30
2019-04-23T16:45:58.662Z,36.30
2019-04-23T16:53:30.008Z,36.40
2019-04-23T16:58:55.139Z,36.60
2019-04-23T17:01:34.438Z,36.60
2019-04-23T17:04:08.207Z,36.70
2019-04-23T17:06:29.444Z,36.80
2019-04-23T17:09:09.517Z,36.70
2019-04-23T17:11:42.897Z,36.80
2019-04-23T17:17:07.820Z,36.90
2019-04-23T17:19:33.322Z,37.20
2019-04-23T17:22:06.269Z,37.20
2019-04-23T17:24:59.407Z,37.90
2019-04-23T17:27:16.841Z,37.30
2019-04-23T17:29:55.763Z,37.30
2019-04-23T17:32:20.985Z,37.30
2019-04-23T17:35:15.873Z,37.40
2019-04-23T17:37:40.134Z,37.50
2019-04-23T17:40:17.695Z,37.50
2019-04-23T17:42:49.624Z,37.70
2019-04-23T17:50:44.296Z,38.00
2019-04-23T17:53:21.942Z,38.10
2019-04-23T17:56:20.206Z,38.20
2019-04-23T17:58:34.184Z,38.20
2019-04-23T18:01:17.728Z,38.40
2019-04-23T18:03:51.589Z,38.40
2019-04-23T18:06:28.320Z,38.40
2019-04-23T18:11:30.726Z,38.70
2019-04-23T18:14:02.614Z,38.70
2019-04-23T18:16:48.023Z,38.90
2019-04-23T18:19:12.346Z,39.00
2019-04-23T18:22:15.770Z,39.00
2019-04-23T18:25:04.458Z,39.20
2019-04-23T18:27:38.889Z,39.50
2019-04-23T18:30:40.612Z,39.90
2019-04-23T18:36:01.245Z,40.80
2019-04-23T18:38:41.315Z,40.40
2019-04-23T18:41:27.259Z,40.80
2019-04-23T18:43:50.692Z,41.00
2019-04-23T18:46:35.598Z,41.10
2019-04-23T18:48:54.038Z,41.20
2019-04-23T18:51:37.242Z,41.30
2019-04-23T18:54:05.598Z,41.40
2019-04-23T18:57:09.766Z,41.60
2019-04-23T18:59:31.107Z,41.70
2019-04-23T19:02:16.938Z,41.80
2019-04-23T19:07:32.213Z,41.90
2019-04-23T19:13:04.325Z,42.20
2019-04-23T19:15:39.687Z,42.30
2019-04-23T19:18:12.597Z,42.30
2019-04-23T19:23:32.149Z,42.90
2019-04-23T19:25:59.607Z,42.40
2019-04-23T19:31:27.588Z,42.30
2019-04-23T19:34:02.934Z,42.40
2019-04-23T19:36:39.940Z,42.40
2019-04-23T19:39:36.888Z,42.40
2019-04-23T19:44:28.763Z,42.50
2019-04-23T19:49:34.244Z,42.60
2019-04-23T19:52:03.139Z,42.70
2019-04-23T19:54:52.195Z,42.90
2019-04-23T19:57:19.415Z,42.90
2019-04-23T20:00:02.549Z,42.90
2019-04-23T20:02:38.590Z,42.90
2019-04-23T20:05:00.837Z,43.00
2019-04-23T20:07:46.935Z,43.10
2019-04-23T20:10:03.732Z,43.10
2019-04-23T20:12:52.888Z,43.30
2019-04-23T20:15:29.922Z,43.60
2019-04-23T20:17:54.152Z,43.70
2019-04-23T20:20:42.395Z,43.80
2019-04-23T20:23:13.260Z,43.80
2019-04-23T20:28:49.296Z,43.50
2019-04-23T20:32:16.802Z,43.50
2019-04-23T20:34:14.136Z,43.40
2019-04-23T20:36:25.364Z,43.40
2019-04-23T20:41:54.831Z,43.50
2019-04-23T20:44:33.578Z,43.50
2019-04-23T20:47:08.076Z,43.60
2019-04-23T20:52:07.435Z,43.70
2019-04-23T20:57:39.205Z,43.90
2019-04-23T21:10:37.158Z,44.00
2019-04-23T21:21:08.120Z,44.10
2019-04-23T21:23:36.112Z,44.00
2019-04-23T21:26:07.772Z,44.10
2019-04-23T21:28:44.352Z,44.20
2019-04-23T21:34:03.133Z,44.40
2019-04-23T21:40:04.739Z,44.40
2019-04-23T21:44:35.061Z,44.40
2019-04-23T21:46:55.422Z,44.60
2019-04-23T21:52:05.033Z,44.60
2019-04-23T21:54:47.151Z,44.80
2019-04-23T21:57:14.748Z,44.80
2019-04-23T22:02:34.428Z,44.90
2019-04-23T22:05:10.818Z,45.00
2019-04-23T22:13:05.309Z,45.20
2019-04-23T22:15:34.453Z,45.30
2019-04-23T22:17:59.678Z,45.40
2019-04-23T22:20:43.696Z,46.10
2019-04-23T22:23:11.315Z,45.60
2019-04-23T22:26:08.015Z,45.70
2019-04-23T22:28:33.089Z,45.60
2019-04-23T22:31:06.783Z,45.90
2019-04-23T22:33:39.261Z,45.80
2019-04-23T22:36:12.999Z,45.70
2019-04-23T22:38:45.311Z,45.60
2019-04-23T22:41:18.180Z,45.70
2019-04-23T22:44:02.437Z,45.60
2019-04-23T22:46:37.121Z,45.70
2019-04-23T22:49:17.964Z,45.90
2019-04-23T22:51:49.206Z,46.00
2019-04-23T23:02:25.422Z,46.20
2019-04-23T23:04:54.530Z,46.20
2019-04-23T23:07:28.956Z,46.30
2019-04-23T23:09:56.467Z,46.30
2019-04-23T23:12:31.768Z,46.50
2019-04-23T23:15:02.858Z,46.50
2019-04-23T23:17:42.063Z,46.50
2019-04-23T23:20:13.941Z,46.70
2019-04-23T23:25:33.482Z,46.90
2019-04-23T23:28:06.118Z,47.00
2019-04-23T23:30:39.380Z,47.10
2019-04-23T23:35:58.937Z,47.30
2019-04-23T23:40:58.742Z,47.40
2019-04-23T23:43:29.965Z,47.50
2019-04-23T23:46:15.244Z,47.60
2019-04-23T23:48:36.081Z,47.60
2019-04-23T23:51:17.048Z,47.80
2019-04-23T23:59:04.225Z,48.20
